Flight Briefing for CPX441

Departure Arrival
Salt Lake City International Airport (KSLC)
Click to view FAA NOTAMS
Chicago/Rockford International Airport (KRFD)
Click to view FAA NOTAMS
Departure Time Arrival Time
N/A N/A
Aircraft Distance
B757-200SF 1031nm
Departure METAR Arrival METAR
KSLC 181554Z 15005KT 10SM SCT200 BKN230 06/M02 A3020 RMK AO2 SLP222 T00561022 KRFD 181601Z 32005KT 10SM BKN015 03/M02 A3040 RMK AO2 T00281017
Suggested Route
RUGGD1 OCS KURSE Q122 FOD BHAWK RFD


View recent IFR Routes data
Notes



Charts and Procedures

Charts for KSLC
No chart available
Charts for KRFD
No chart available

Windy.com Weather Map